Time;durP1;ratioP1;P1;durP2;ratioP2;P2;SDS_P1;SDS_P2;PMS_P1;PMS_P2;Temp;Humidity;BMP_temperature;BMP_pressure;BME280_temperature;BME280_humidity;BME280_pressure;Samples;Min_cycle;Max_cycle;Signal;HPM_P1;HPM_P2
2023/04/27 00:01:10;;;;;;;3.65;1.60;;;9.30;99.30;;;9.28;85.03;101302.09;5180562;28;20309;-67
2023/04/27 00:03:44;;;;;;;3.30;2.20;;;9.20;99.70;;;9.23;85.66;101293.19;5164470;28;20038;-68
2023/04/27 00:06:16;;;;;;;4.53;2.40;;;9.20;99.90;;;9.20;86.37;101295.66;5162498;28;20058;-68
2023/04/27 00:08:48;;;;;;;4.47;2.00;;;9.20;99.90;;;9.17;86.01;101308.50;5160593;28;20400;-67
2023/04/27 00:11:22;;;;;;;3.50;2.10;;;9.10;99.90;;;9.13;86.03;101301.38;5164067;28;20042;-68
2023/04/27 00:13:54;;;;;;;3.75;2.08;;;9.10;99.90;;;9.10;86.53;101299.50;5165509;28;20046;-68
2023/04/27 00:16:28;;;;;;;3.45;2.30;;;9.10;99.90;;;9.09;86.91;101302.94;5165014;28;20047;-68
2023/04/27 00:19:00;;;;;;;2.63;2.22;;;9.10;99.90;;;9.07;87.24;101301.97;5165243;28;20104;-67
2023/04/27 00:21:33;;;;;;;3.03;2.28;;;9.10;99.90;;;9.05;87.89;101302.69;5160087;28;20043;-68
2023/04/27 00:24:06;;;;;;;5.68;2.45;;;9.00;99.90;;;9.04;88.19;101300.91;5162473;28;20046;-68
2023/04/27 00:26:40;;;;;;;2.28;1.90;;;9.00;99.90;;;9.01;88.50;101303.38;5165036;28;20499;-68
2023/04/27 00:29:12;;;;;;;3.03;2.13;;;9.00;99.90;;;8.98;87.84;101298.91;5165091;28;20050;-68
2023/04/27 00:31:44;;;;;;;2.80;2.05;;;9.00;99.90;;;8.94;87.37;101300.47;5163562;28;20064;-68
2023/04/27 00:34:17;;;;;;;3.40;2.50;;;8.90;99.90;;;8.93;87.43;101309.09;5163996;28;20054;-68
2023/04/27 00:36:52;;;;;;;2.83;1.90;;;8.90;99.90;;;8.92;87.51;101309.00;5163207;28;20049;-67
2023/04/27 00:39:25;;;;;;;2.03;1.80;;;8.90;99.90;;;8.94;87.27;101308.28;5165092;28;20038;-68
2023/04/27 00:42:00;;;;;;;3.13;2.03;;;8.90;99.90;;;8.94;86.92;101310.88;5163439;28;20129;-67
2023/04/27 00:44:32;;;;;;;3.85;2.15;;;8.90;99.90;;;8.93;86.32;101306.50;5156306;28;20065;-68
2023/04/27 00:47:05;;;;;;;3.20;2.08;;;8.90;99.90;;;8.94;86.08;101310.88;5164652;28;20050;-67
2023/04/27 00:49:38;;;;;;;2.90;2.13;;;8.90;99.90;;;8.96;86.10;101310.94;5162993;28;20081;-69
2023/04/27 00:52:10;;;;;;;3.35;1.98;;;8.90;99.90;;;8.94;86.06;101310.88;5178815;28;20640;-68
2023/04/27 00:54:43;;;;;;;3.50;2.50;;;8.90;99.90;;;8.96;85.23;101314.44;5163085;28;20551;-68
2023/04/27 00:57:17;;;;;;;3.95;2.38;;;8.90;99.90;;;8.98;85.14;101320.59;5179334;28;20443;-68
2023/04/27 00:59:50;;;;;;;3.90;2.13;;;8.90;99.90;;;9.01;84.95;101316.38;5162963;28;20169;-68
2023/04/27 01:02:22;;;;;;;3.70;1.90;;;9.00;99.90;;;9.02;85.07;101320.75;5162523;28;20044;-68
2023/04/27 01:04:55;;;;;;;3.15;2.05;;;9.00;99.90;;;9.02;85.69;101318.16;5179801;28;20565;-67
2023/04/27 01:07:27;;;;;;;2.85;1.83;;;9.00;99.90;;;9.01;85.51;101311.19;5163331;28;20058;-68
2023/04/27 01:09:59;;;;;;;3.78;2.47;;;9.00;99.90;;;9.02;85.27;101310.34;5163110;28;20054;-67
2023/04/27 01:12:33;;;;;;;3.83;2.15;;;9.00;99.90;;;9.03;85.45;101313.03;5156770;28;20042;-67
2023/04/27 01:15:08;;;;;;;3.85;2.40;;;9.00;99.90;;;9.03;85.87;101309.53;5179106;28;20049;-69
2023/04/27 01:17:40;;;;;;;3.63;2.10;;;9.00;99.90;;;9.02;85.94;101312.97;5163864;28;20049;-67
2023/04/27 01:20:13;;;;;;;3.58;2.30;;;9.00;99.90;;;8.98;86.05;101311.91;5164142;28;20038;-67
2023/04/27 01:22:46;;;;;;;3.83;2.38;;;9.00;99.90;;;8.95;85.49;101311.78;5177992;28;20145;-68
2023/04/27 01:25:20;;;;;;;2.30;1.60;;;8.90;99.90;;;8.92;85.78;101306.41;5162403;28;20399;-68
2023/04/27 01:27:53;;;;;;;3.25;2.20;;;8.90;99.90;;;8.88;86.10;101318.38;5162683;28;20526;-67
2023/04/27 01:30:27;;;;;;;3.53;2.08;;;8.90;99.90;;;8.87;86.11;101314.00;5163451;28;20038;-68
2023/04/27 01:32:59;;;;;;;4.22;2.15;;;8.80;99.90;;;8.84;86.46;101308.63;5162635;28;20074;-68
2023/04/27 01:35:31;;;;;;;4.30;2.20;;;8.80;99.90;;;8.83;86.26;101321.56;5163549;28;20053;-69
2023/04/27 01:38:05;;;;;;;4.18;2.22;;;8.80;99.90;;;8.80;86.47;101317.09;5162301;28;20069;-68
2023/04/27 01:40:39;;;;;;;3.03;2.25;;;8.80;99.90;;;8.80;86.45;101317.09;5163866;28;20114;-67
2023/04/27 01:43:12;;;;;;;2.65;2.15;;;8.80;99.90;;;8.80;86.26;101309.31;5162093;28;20141;-68
2023/04/27 01:45:44;;;;;;;3.53;2.20;;;8.80;99.90;;;8.81;86.23;101308.47;5162542;28;20046;-69
2023/04/27 01:48:17;;;;;;;3.20;2.20;;;8.80;99.90;;;8.80;85.88;101306.72;5161697;28;20495;-68
2023/04/27 01:50:50;;;;;;;4.07;1.95;;;8.80;99.90;;;8.80;85.77;101310.97;5162326;28;20049;-68
2023/04/27 01:53:22;;;;;;;2.88;2.15;;;8.80;99.90;;;8.76;84.90;101311.66;5160945;28;20565;-68
2023/04/27 01:55:56;;;;;;;3.80;2.67;;;8.70;99.90;;;8.75;85.11;101328.97;5163063;28;20085;-67
2023/04/27 01:58:29;;;;;;;5.90;2.35;;;8.70;99.90;;;8.75;85.13;101328.97;5161391;28;20053;-69
2023/04/27 02:01:02;;;;;;;3.55;2.20;;;8.70;99.90;;;8.74;85.30;101324.59;5161165;28;20059;-69
2023/04/27 02:03:34;;;;;;;4.80;2.15;;;8.70;99.90;;;8.73;84.83;101317.59;5154312;28;20049;-68
2023/04/27 02:06:08;;;;;;;3.75;2.10;;;8.70;99.90;;;8.73;85.01;101325.38;5161004;28;20050;-68
2023/04/27 02:08:41;;;;;;;3.85;2.00;;;8.70;99.90;;;8.69;85.61;101328.66;5161830;28;20396;-69
2023/04/27 02:11:15;;;;;;;5.22;2.42;;;8.70;99.90;;;8.67;85.06;101322.47;5161808;28;20120;-67
2023/04/27 02:13:48;;;;;;;4.15;2.40;;;8.60;99.90;;;8.64;85.39;101320.63;5158665;28;20057;-70
2023/04/27 02:16:20;;;;;;;4.57;2.13;;;8.60;99.90;;;8.61;84.96;101317.00;5154156;28;20418;-68
2023/04/27 02:18:54;;;;;;;4.15;2.45;;;8.60;99.90;;;8.57;85.61;101328.03;5163835;28;20042;-68
2023/04/27 02:21:28;;;;;;;3.25;2.20;;;8.50;99.90;;;8.54;85.57;101327.84;5161437;28;20041;-69
2023/04/27 02:24:02;;;;;;;4.00;2.22;;;8.50;99.90;;;8.53;85.82;101326.06;5163389;28;20475;-70
2023/04/27 02:26:35;;;;;;;4.82;2.53;;;8.50;99.90;;;8.51;86.09;101327.72;5155280;28;20505;-68
2023/04/27 02:29:08;;;;;;;3.50;2.00;;;8.50;99.90;;;8.48;86.03;101319.78;5158465;28;20411;-67
2023/04/27 02:31:42;;;;;;;4.50;2.33;;;8.50;99.90;;;8.43;86.06;101319.53;5163018;28;20058;-68
2023/04/27 02:34:14;;;;;;;4.60;2.30;;;8.40;99.90;;;8.42;86.04;101323.84;5145684;28;20500;-69
2023/04/27 02:36:46;;;;;;;4.07;2.78;;;8.40;99.90;;;8.41;86.32;101321.13;5156525;28;20039;-68
2023/04/27 02:39:18;;;;;;;4.57;2.53;;;8.40;99.90;;;8.39;86.88;101323.66;5176229;28;20042;-68
2023/04/27 02:41:52;;;;;;;3.45;2.65;;;8.40;99.90;;;8.40;86.99;101329.75;5157590;28;20052;-68
2023/04/27 02:44:24;;;;;;;3.67;2.42;;;8.40;99.90;;;8.39;87.10;101326.25;5161490;28;20046;-67
2023/04/27 02:46:56;;;;;;;4.30;2.67;;;8.40;99.90;;;8.40;86.80;101321.94;5161137;28;20472;-70
2023/04/27 02:49:29;;;;;;;3.53;2.47;;;8.40;99.90;;;8.41;86.68;101327.25;5160664;28;20179;-69
2023/04/27 02:52:02;;;;;;;4.25;2.72;;;8.40;99.90;;;8.45;86.76;101322.19;5161720;28;20486;-68
2023/04/27 02:54:35;;;;;;;4.20;2.53;;;8.40;99.90;;;8.48;86.31;101318.06;5178305;28;20054;-68
2023/04/27 02:57:08;;;;;;;5.15;2.55;;;8.50;99.90;;;8.50;86.30;101320.75;5158001;28;20043;-70
2023/04/27 02:59:40;;;;;;;5.40;3.05;;;8.50;99.90;;;8.53;85.46;101316.56;5148632;28;20466;-68
2023/04/27 03:02:14;;;;;;;5.13;3.00;;;8.50;99.90;;;8.54;85.52;101313.19;5159597;28;20159;-68
2023/04/27 03:04:47;;;;;;;5.82;2.85;;;8.50;99.90;;;8.55;85.49;101311.47;5163113;28;20093;-68
2023/04/27 03:07:21;;;;;;;5.63;3.08;;;8.60;99.90;;;8.54;85.08;101301.88;5161686;28;20050;-67
2023/04/27 03:09:53;;;;;;;5.32;2.42;;;8.60;99.90;;;8.55;85.13;101304.56;5158358;28;20313;-69
2023/04/27 03:12:28;;;;;;;5.85;3.25;;;8.50;99.90;;;8.55;85.14;101303.69;5164132;28;20113;-70
2023/04/27 03:15:00;;;;;;;5.28;2.92;;;8.50;99.90;;;8.55;85.22;101306.28;5153945;28;20141;-68
2023/04/27 03:17:33;;;;;;;7.50;3.33;;;8.50;99.90;;;8.53;84.89;101305.28;5181656;28;20466;-68
2023/04/27 03:20:08;;;;;;;8.20;3.47;;;8.50;99.90;;;8.41;83.34;101306.47;5166958;28;20522;-67
2023/04/27 03:22:41;;;;;;;9.60;3.70;;;8.50;99.90;;;8.40;83.76;101308.97;5164143;28;20038;-68
2023/04/27 03:25:13;;;;;;;6.32;3.40;;;8.50;99.90;;;8.39;83.51;101307.19;5165180;28;20593;-67
2023/04/27 03:27:47;;;;;;;8.23;4.10;;;8.50;99.90;;;8.33;82.88;101302.53;5166533;28;20066;-68
2023/04/27 03:30:19;;;;;;;7.43;3.72;;;8.40;99.80;;;8.30;82.63;101317.97;5166049;28;20034;-68
2023/04/27 03:32:51;;;;;;;8.93;3.83;;;8.40;99.80;;;8.26;83.05;101316.00;5165347;28;20056;-68
2023/04/27 03:35:25;;;;;;;8.63;3.47;;;8.40;99.70;;;8.25;82.73;101311.63;5155569;28;20051;-69
2023/04/27 03:37:57;;;;;;;7.93;3.72;;;8.40;99.80;;;8.21;83.23;101307.06;5164817;28;20522;-69
2023/04/27 03:40:29;;;;;;;8.82;4.20;;;8.30;99.70;;;8.11;82.28;101310.03;5166220;28;20049;-68
2023/04/27 03:43:05;;;;;;;8.75;4.00;;;8.30;99.40;;;8.01;82.90;101312.94;5166287;28;20058;-68
2023/04/27 03:45:38;;;;;;;8.10;3.97;;;8.20;99.60;;;7.96;83.08;101310.09;5157223;28;20077;-68
2023/04/27 03:48:10;;;;;;;8.57;4.43;;;8.10;99.60;;;7.87;83.51;101307.00;5166252;28;20507;-69
2023/04/27 03:50:43;;;;;;;11.15;4.32;;;8.10;99.70;;;7.84;83.46;101304.25;5161594;28;20145;-67
2023/04/27 03:53:15;;;;;;;8.63;3.80;;;8.10;99.90;;;7.84;83.81;101310.34;5164023;28;20049;-68
2023/04/27 03:55:47;;;;;;;6.82;3.45;;;8.00;99.90;;;7.84;84.40;101305.16;5151190;28;20038;-68
2023/04/27 03:58:22;;;;;;;7.32;3.40;;;8.00;99.90;;;7.84;83.95;101312.94;5162363;28;20519;-69
2023/04/27 04:01:15;;;;;;;4.88;2.70;;;8.00;99.90;;;7.84;84.62;101318.13;5165222;28;20061;-68
2023/04/27 04:03:47;;;;;;;6.07;2.90;;;7.90;99.90;;;7.81;85.09;101325.72;5150680;28;20055;-69
2023/04/27 04:06:19;;;;;;;6.18;3.25;;;7.90;99.90;;;7.77;84.87;101321.19;5178088;28;20146;-69
2023/04/27 04:08:51;;;;;;;6.15;2.88;;;7.90;99.90;;;7.75;85.31;101325.41;5165905;28;20125;-69
2023/04/27 04:11:24;;;;;;;5.85;2.90;;;7.90;99.90;;;7.74;86.07;101327.91;5155179;28;20051;-69
2023/04/27 04:14:02;;;;;;;5.63;3.08;;;7.80;99.90;;;7.70;86.93;101332.06;5181031;28;20046;-68
2023/04/27 04:16:34;;;;;;;6.03;3.25;;;7.80;99.90;;;7.68;87.27;101331.06;5156481;28;20121;-67
2023/04/27 04:19:07;;;;;;;5.18;2.63;;;7.70;99.90;;;7.65;88.26;101328.31;5160672;28;20043;-68
2023/04/27 04:21:39;;;;;;;5.95;2.90;;;7.70;99.90;;;7.61;88.26;101336.72;5159177;28;20066;-68
2023/04/27 04:24:12;;;;;;;6.05;2.95;;;7.70;99.90;;;7.58;88.78;101339.16;5161777;28;20128;-69
2023/04/27 04:26:44;;;;;;;6.75;2.78;;;7.60;99.90;;;7.51;88.92;101345.72;5150886;28;20135;-69
2023/04/27 04:29:18;;;;;;;6.13;3.05;;;7.60;99.90;;;7.45;89.44;101344.47;5177952;28;20261;-69
2023/04/27 04:31:51;;;;;;;5.38;2.80;;;7.50;99.90;;;7.40;90.16;101346.81;5165407;28;20135;-69
2023/04/27 04:34:25;;;;;;;6.25;2.90;;;7.50;99.90;;;7.35;90.73;101349.13;5165251;28;20077;-69
2023/04/27 04:36:57;;;;;;;6.88;3.03;;;7.40;99.90;;;7.34;91.13;101351.66;5148514;28;20300;-68
2023/04/27 04:39:32;;;;;;;6.03;3.33;;;7.40;99.90;;;7.28;91.31;101346.13;5164697;28;20043;-68
2023/04/27 04:42:05;;;;;;;5.78;2.90;;;7.30;99.90;;;7.23;92.13;101348.44;5180728;28;20337;-68
2023/04/27 04:44:39;;;;;;;6.88;2.97;;;7.30;99.90;;;7.19;92.46;101346.50;5164293;28;20077;-69
2023/04/27 04:47:12;;;;;;;5.40;2.83;;;7.20;99.90;;;7.16;92.86;101348.00;5160770;28;20054;-68
2023/04/27 04:49:44;;;;;;;7.15;3.58;;;7.20;99.90;;;7.13;92.82;101356.50;5164089;28;20100;-67
2023/04/27 04:52:17;;;;;;;5.93;2.67;;;7.20;99.90;;;7.16;93.29;101356.66;5162483;28;20120;-68
2023/04/27 04:54:52;;;;;;;5.60;3.03;;;7.20;99.90;;;7.19;93.70;101351.69;5165500;28;20062;-68
2023/04/27 04:57:24;;;;;;;6.22;3.20;;;7.20;99.90;;;7.24;93.56;101357.13;5163855;28;20149;-67
2023/04/27 04:59:58;;;;;;;6.03;2.83;;;7.30;99.90;;;7.26;93.31;101358.09;5156750;28;20389;-69
2023/04/27 05:02:30;;;;;;;5.88;2.60;;;7.30;99.90;;;7.27;93.92;101358.19;5176307;28;20452;-68
2023/04/27 05:05:02;;;;;;;6.40;3.30;;;7.30;99.90;;;7.31;94.38;101362.75;5159203;28;20053;-68
2023/04/27 05:07:35;;;;;;;6.07;2.42;;;7.40;99.90;;;7.40;94.65;101369.25;5180919;23;20368;-62
2023/04/27 05:10:08;;;;;;;9.93;3.83;;;7.40;99.90;;;7.46;95.27;101369.59;5151625;28;20520;-64
2023/04/27 05:12:40;;;;;;;6.32;3.50;;;7.50;99.90;;;7.49;94.89;101367.16;5160734;28;20046;-64
2023/04/27 05:15:15;;;;;;;7.70;3.85;;;7.50;99.90;;;7.54;93.94;101370.94;5155390;28;20054;-66
2023/04/27 05:17:47;;;;;;;;;;;7.60;99.90;;;7.59;93.62;101374.69;5160100;28;20043;-64
2023/04/27 05:20:19;;;;;;;7.28;3.47;;;7.60;99.90;;;7.61;93.29;101373.94;5162697;28;19926;-63
2023/04/27 05:22:51;;;;;;;7.70;3.22;;;7.70;99.90;;;7.66;93.38;101382.00;5163734;28;20407;-64
2023/04/27 05:25:24;;;;;;;8.68;4.07;;;7.70;99.90;;;7.67;92.69;101373.41;5158324;28;20399;-64
2023/04/27 05:27:56;;;;;;;7.97;3.78;;;7.70;99.90;;;7.66;92.07;101371.63;5175057;28;20054;-66
2023/04/27 05:30:29;;;;;;;8.20;4.00;;;7.70;99.90;;;7.69;91.99;101376.06;5164110;28;20046;-65
2023/04/27 05:33:01;;;;;;;7.13;3.53;;;7.70;99.90;;;7.71;91.67;101385.75;5165169;28;20049;-61
2023/04/27 05:35:34;;;;;;;8.10;3.00;;;7.70;99.90;;;7.74;91.32;101387.59;5164761;28;20486;-62
2023/04/27 05:38:06;;;;;;;7.25;3.25;;;7.80;99.90;;;7.82;91.33;101386.31;5157020;28;20049;-65
2023/04/27 05:40:38;;;;;;;11.07;4.93;;;7.80;99.90;;;8.10;91.78;101388.75;5159073;28;20047;-64
2023/04/27 05:43:10;;;;;;;10.48;4.97;;;8.00;99.90;;;8.56;90.26;101392.09;5156249;28;20078;-64
2023/04/27 05:45:43;;;;;;;11.60;4.55;;;8.40;99.90;;;9.17;87.67;101404.75;5158041;28;20038;-65
2023/04/27 05:48:16;;;;;;;9.10;4.78;;;8.90;99.90;;;9.71;84.57;101397.84;5165242;28;20038;-64
2023/04/27 05:50:48;;;;;;;8.63;4.35;;;9.40;99.90;;;10.08;81.12;101403.06;5156887;28;20054;-64
2023/04/27 05:53:20;;;;;;;10.35;4.93;;;9.70;99.90;;;10.40;79.42;101406.28;5164911;28;20038;-65
2023/04/27 05:55:52;;;;;;;11.57;4.95;;;10.10;99.10;;;10.54;77.17;101407.81;5165360;28;20053;-65
2023/04/27 05:58:24;;;;;;;8.55;4.57;;;10.30;97.70;;;10.65;76.65;101406.56;5162795;28;20042;-64
2023/04/27 06:00:58;;;;;;;12.20;5.00;;;10.40;97.10;;;11.01;75.41;101407.25;5175293;28;20050;-64
2023/04/27 06:03:30;;;;;;;8.95;4.55;;;10.70;96.40;;;11.44;74.28;101408.19;5165187;28;20148;-63
2023/04/27 06:06:03;;;;;;;8.32;4.40;;;11.10;95.50;;;11.71;72.56;101409.28;5163863;28;20042;-54
2023/04/27 06:08:36;;;;;;;10.30;4.88;;;11.30;94.60;;;11.97;71.71;101414.69;5163359;28;20117;-56
2023/04/27 06:11:08;;;;;;;10.25;4.43;;;11.60;93.80;;;12.22;69.97;101415.69;5178214;28;20432;-57
2023/04/27 06:13:40;;;;;;;9.65;5.18;;;11.80;92.30;;;12.45;68.67;101413.00;5155513;28;20483;-55
2023/04/27 06:16:13;;;;;;;8.80;4.55;;;12.00;91.40;;;12.67;68.23;101412.97;5162859;28;20145;-57
2023/04/27 06:18:45;;;;;;;10.52;3.92;;;12.30;90.60;;;12.87;66.80;101413.69;5163237;28;20052;-55
2023/04/27 06:21:18;;;;;;;11.07;4.57;;;12.50;89.30;;;13.16;65.71;101422.53;5162561;28;20483;-57
2023/04/27 06:23:50;;;;;;;8.00;4.40;;;12.70;87.20;;;13.49;65.16;101432.41;5163127;28;20170;-56
2023/04/27 06:26:22;;;;;;;8.65;4.30;;;13.00;86.30;;;13.73;64.51;101427.97;5161761;28;21563;-54
2023/04/27 06:28:55;;;;;;;11.43;4.93;;;13.30;85.00;;;13.92;63.57;101418.94;5162824;28;20042;-56
2023/04/27 06:31:28;;;;;;;8.68;4.15;;;13.50;83.30;;;14.07;63.09;101423.78;5159228;28;20101;-56
2023/04/27 06:34:01;;;;;;;10.38;4.82;;;13.70;81.90;;;14.20;62.68;101425.03;5149775;28;20423;-55
2023/04/27 06:36:33;;;;;;;8.10;4.10;;;13.80;80.80;;;14.33;62.11;101433.31;5162022;28;20049;-56
2023/04/27 06:39:05;;;;;;;7.82;4.03;;;13.90;80.20;;;14.56;61.28;101425.28;5155269;28;20039;-55
2023/04/27 06:41:37;;;;;;;9.13;4.07;;;14.10;78.50;;;14.71;61.36;101423.06;5169476;28;20052;-55
2023/04/27 06:44:09;;;;;;;9.75;4.47;;;14.20;78.40;;;14.70;61.43;101429.16;5162456;28;20042;-58
2023/04/27 06:46:43;;;;;;;9.48;4.30;;;14.30;78.30;;;14.93;60.55;101422.81;5162157;28;20490;-56
2023/04/27 06:49:15;;;;;;;11.40;4.40;;;14.50;77.20;;;14.91;60.17;101429.75;5162060;28;20471;-56
2023/04/27 06:51:48;;;;;;;7.53;4.00;;;14.50;75.80;;;14.93;60.25;101424.53;5162169;28;20034;-57
2023/04/27 06:54:20;;;;;;;10.13;4.47;;;14.50;75.80;;;14.98;60.91;101422.03;5162284;28;20042;-57
2023/04/27 06:56:53;;;;;;;8.88;4.05;;;14.60;76.50;;;15.02;61.44;101429.16;5162309;28;20046;-56
2023/04/27 06:59:26;;;;;;;9.10;4.20;;;14.60;77.10;;;15.25;60.54;101424.50;5177542;28;20058;-56
2023/04/27 07:01:59;;;;;;;9.25;4.20;;;14.70;76.00;;;15.64;59.29;101420.25;5155198;28;20039;-56
2023/04/27 07:04:31;;;;;;;11.05;4.43;;;15.00;74.70;;;15.84;58.26;101420.72;5161496;28;20035;-58
2023/04/27 07:07:03;;;;;;;7.78;3.33;;;15.30;73.30;;;16.24;57.19;101416.38;5162082;28;20053;-57
2023/04/27 07:09:36;;;;;;;7.80;3.80;;;15.60;72.00;;;16.37;55.90;101422.81;5161873;28;20057;-58
2023/04/27 07:12:08;;;;;;;9.55;4.70;;;15.80;70.20;;;16.30;55.22;101413.88;5176845;28;20089;-58
2023/04/27 07:14:40;;;;;;;8.90;4.30;;;15.90;68.60;;;16.11;55.24;101414.34;5162295;28;20061;-58
2023/04/27 07:17:14;;;;;;;8.38;4.20;;;15.80;68.10;;;16.14;56.18;101417.03;5160990;28;20149;-54
2023/04/27 07:19:46;;;;;;;7.20;3.85;;;15.80;69.00;;;16.16;56.06;101415.31;5152820;28;20039;-53
2023/04/27 07:22:18;;;;;;;8.13;3.75;;;15.80;68.80;;;16.18;56.81;101416.25;5160103;28;20417;-53
2023/04/27 07:24:51;;;;;;;8.45;4.03;;;15.70;69.50;;;16.25;56.22;101420.78;5162750;28;20442;-53
2023/04/27 07:27:23;;;;;;;9.63;4.10;;;15.80;69.10;;;16.46;56.50;101415.97;5162222;28;20490;-53
2023/04/27 07:29:55;;;;;;;10.05;4.60;;;15.90;69.30;;;16.72;56.27;101413.91;5162930;28;20069;-54
2023/04/27 07:32:29;;;;;;;8.35;3.97;;;16.10;69.00;;;16.81;56.08;101418.44;5161355;28;20046;-54
2023/04/27 07:35:02;;;;;;;7.75;4.13;;;16.20;68.80;;;16.71;56.20;101416.50;5177312;28;20407;-53
2023/04/27 07:37:34;;;;;;;10.05;4.05;;;16.20;68.80;;;16.65;56.59;101411.09;5162020;28;20046;-53
2023/04/27 07:40:15;;;;;;;9.43;4.70;;;16.10;69.10;;;16.88;54.76;101414.19;5161192;28;20581;-58
2023/04/27 07:42:47;;;;;;;7.85;4.20;;;16.20;68.10;;;17.18;53.80;101406.84;5155302;28;20134;-58
2023/04/27 07:45:19;;;;;;;8.80;3.90;;;16.50;66.00;;;17.38;53.72;101415.09;5161643;28;20042;-58
2023/04/27 07:47:52;;;;;;;7.75;3.70;;;16.70;65.90;;;17.48;53.54;101418.78;5159697;28;20109;-57
2023/04/27 07:50:25;;;;;;;7.60;3.75;;;16.90;65.60;;;17.67;53.49;101407.66;5151616;28;20535;-57
2023/04/27 07:52:57;;;;;;;7.50;3.15;;;17.00;65.50;;;17.83;53.09;101398.25;5149044;28;20118;-56
2023/04/27 07:55:29;;;;;;;8.80;4.05;;;17.20;64.90;;;18.00;53.21;101407.31;5162041;28;20419;-58
2023/04/27 07:58:02;;;;;;;9.35;4.20;;;17.30;64.90;;;18.04;52.66;101395.91;5153855;28;20043;-57
2023/04/27 08:00:34;;;;;;;7.97;3.67;;;17.40;64.50;;;18.24;51.93;101397.94;5156284;28;20145;-57
2023/04/27 08:03:07;;;;;;;8.10;3.67;;;17.50;63.50;;;18.52;51.96;101400.06;5157426;28;20491;-54
2023/04/27 08:05:40;;;;;;;6.07;3.20;;;17.70;63.50;;;18.86;51.32;101403.13;5165677;28;20046;-57
2023/04/27 08:08:12;;;;;;;7.43;3.30;;;17.90;63.20;;;19.34;49.31;101404.44;5164881;28;20108;-57
2023/04/27 08:10:44;;;;;;;6.32;3.47;;;18.20;61.50;;;19.73;47.58;101399.50;5153005;28;20073;-57
2023/04/27 08:13:16;;;;;;;7.35;4.20;;;18.50;59.50;;;20.10;47.59;101405.03;5156588;28;20542;-56
2023/04/27 08:15:48;;;;;;;7.80;3.80;;;18.70;59.40;;;20.11;45.36;101395.31;5176622;28;20046;-57
2023/04/27 08:18:22;;;;;;;6.78;3.20;;;18.70;56.90;;;20.59;45.25;101397.31;5164470;28;20392;-57
2023/04/27 08:20:54;;;;;;;6.85;3.65;;;18.90;57.20;;;20.95;44.47;101393.00;5164569;28;20122;-57
2023/04/27 08:23:28;;;;;;;7.93;4.28;;;19.10;56.30;;;21.58;43.27;101386.88;5164652;28;20047;-57
2023/04/27 08:26:00;;;;;;;10.13;4.88;;;19.40;55.60;;;21.33;41.06;101388.66;5164950;28;20053;-56
2023/04/27 08:28:32;;;;;;;9.48;4.60;;;19.30;53.00;;;21.50;41.86;101390.38;5164829;28;20050;-57
2023/04/27 08:31:04;;;;;;;8.52;3.72;;;19.40;54.00;;;22.56;41.08;101380.38;5164458;28;20716;-60
2023/04/27 08:33:37;;;;;;;7.32;3.90;;;19.80;54.20;;;22.94;40.08;101381.03;5164547;28;20280;-57
2023/04/27 08:36:10;;;;;;;9.00;5.07;;;20.10;53.10;;;23.25;39.13;101394.13;5164396;28;20057;-56
2023/04/27 08:38:42;;;;;;;5.97;2.83;;;20.40;52.20;;;23.61;38.79;101389.41;5164859;28;20507;-56
2023/04/27 08:41:19;;;;;;;5.78;2.88;;;20.80;51.70;;;23.96;39.06;101384.59;5161894;28;20047;-56
2023/04/27 08:43:52;;;;;;;7.55;3.40;;;21.20;51.70;;;24.44;38.61;101387.59;5143598;28;20264;-56
2023/04/27 08:46:26;;;;;;;8.40;4.30;;;21.70;51.60;;;24.95;37.39;101378.91;5152654;28;20051;-56
2023/04/27 08:48:59;;;;;;;7.50;3.30;;;22.10;50.30;;;25.69;36.19;101369.66;5143633;28;20046;-56
2023/04/27 08:51:32;;;;;;;4.40;3.00;;;22.70;49.40;;;26.12;36.80;101376.84;5144294;28;20043;-57
2023/04/27 08:54:04;;;;;;;5.25;2.90;;;23.00;49.80;;;26.27;36.06;101374.78;5144829;28;20419;-58
2023/04/27 08:56:37;;;;;;;5.50;2.95;;;23.20;49.10;;;26.50;36.04;101375.22;5152755;28;20042;-58
2023/04/27 08:59:15;;;;;;;8.65;5.22;;;23.40;49.00;;;25.70;34.04;101382.09;5152516;28;20168;-58
2023/04/27 09:01:48;;;;;;;10.15;3.72;;;23.10;46.50;;;25.10;35.91;101382.25;5158937;28;20495;-58
2023/04/27 09:04:22;;;;;;;6.70;3.15;;;22.60;47.90;;;25.47;35.76;101375.41;5160386;28;20049;-58
2023/04/27 09:06:54;;;;;;;7.20;3.67;;;22.80;48.00;;;25.75;35.97;101373.13;5152392;28;20039;-58
2023/04/27 09:09:26;;;;;;;7.55;3.55;;;23.10;48.40;;;25.83;35.31;101361.44;5151702;28;20070;-57
2023/04/27 09:11:58;;;;;;;6.00;3.35;;;23.20;47.60;;;25.77;35.43;101360.66;5152046;28;20062;-58
2023/04/27 09:14:34;;;;;;;4.28;2.75;;;23.30;47.30;;;25.43;36.36;101361.25;5160202;28;20515;-57
2023/04/27 09:17:08;;;;;;;6.60;3.47;;;23.30;47.90;;;24.99;37.14;101360.16;5152245;28;20093;-57
2023/04/27 09:19:41;;;;;;;6.55;3.90;;;23.10;48.40;;;24.48;37.42;101365.34;5144336;28;20057;-58
2023/04/27 09:22:14;;;;;;;5.63;3.45;;;22.90;48.20;;;23.78;37.43;101358.19;5159754;28;20038;-59
2023/04/27 09:24:51;;;;;;;8.27;4.50;;;22.60;47.70;;;23.15;38.12;101350.78;5157818;28;20042;-60
2023/04/27 09:27:24;;;;;;;6.40;3.60;;;22.20;48.30;;;22.71;39.25;101346.63;5163129;28;20056;-59
2023/04/27 09:29:56;;;;;;;7.53;4.20;;;21.90;49.00;;;22.40;40.10;101350.34;5164520;28;20056;-59
2023/04/27 09:32:28;;;;;;;8.68;4.40;;;21.60;49.70;;;21.94;40.00;101348.72;5164796;28;20050;-67
2023/04/27 09:35:04;;;;;;;6.80;3.67;;;21.30;50.10;;;21.62;40.66;101355.88;5155812;28;20050;-58
2023/04/27 09:37:36;;;;;;;8.48;4.32;;;21.00;49.80;;;21.23;41.40;101340.88;5155788;28;20069;-58
2023/04/27 09:40:09;;;;;;;7.18;3.78;;;20.70;50.50;;;20.94;42.02;101352.34;5147553;28;20035;-57
2023/04/27 09:42:42;;;;;;;4.90;3.45;;;20.40;51.10;;;20.93;42.68;101352.34;5151400;28;20042;-56
2023/04/27 09:45:15;;;;;;;8.20;3.38;;;20.30;51.80;;;20.86;42.96;101344.41;5153078;28;20053;-57
2023/04/27 09:47:47;;;;;;;11.27;6.05;;;20.20;51.90;;;20.63;41.67;101342.59;5150521;28;20047;-57
2023/04/27 09:50:21;;;;;;;7.63;4.10;;;20.10;50.90;;;20.41;43.28;101336.28;5157928;28;20069;-57
2023/04/27 09:52:53;;;;;;;8.40;4.25;;;19.90;52.30;;;20.34;43.39;101335.38;5143721;28;20039;-57
2023/04/27 09:55:32;;;;;;;7.68;3.40;;;19.80;52.30;;;20.20;44.49;101327.41;5143395;28;20055;-58
2023/04/27 09:58:32;;;;;;;7.28;2.90;;;19.70;53.30;;;20.25;45.20;101338.91;5143504;28;20468;-57
2023/04/27 10:01:09;;;;;;;;;;;19.60;54.10;;;20.29;45.27;101327.47;5159136;28;20049;-56
2023/04/27 10:03:59;;;;;;;4.93;3.10;;;19.70;54.10;;;20.47;45.11;101331.06;5162307;28;19961;-57
2023/04/27 10:07:00;;;;;;;7.15;3.60;;;19.80;54.30;;;20.56;44.96;101331.09;5159964;28;20042;-57
2023/04/27 10:09:37;;;;;;;6.03;3.30;;;19.90;54.10;;;20.61;44.62;101320.53;5151278;28;20046;-60
2023/04/27 10:12:18;;;;;;;6.70;3.60;;;19.90;53.70;;;20.48;44.54;101317.84;5150895;28;20043;-57
2023/04/27 10:14:55;;;;;;;6.50;3.20;;;19.90;53.40;;;20.37;44.64;101330.13;5143496;28;20039;-57
2023/04/27 10:17:33;;;;;;;6.60;3.40;;;19.80;53.60;;;20.36;44.99;101323.06;5145594;28;20142;-56
2023/04/27 10:20:08;;;;;;;7.00;4.07;;;19.80;53.90;;;20.36;44.80;101311.59;5153603;28;20050;-57
2023/04/27 10:22:44;;;;;;;9.43;4.35;;;19.80;54.20;;;19.86;43.97;101312.28;5154305;28;20046;-57
2023/04/27 10:25:19;;;;;;;6.10;3.42;;;19.40;52.90;;;19.74;44.74;101310.44;5155063;28;20045;-56
2023/04/27 10:27:53;;;;;;;;;;;19.30;53.40;;;19.80;45.61;101313.13;5155459;28;20503;-56
2023/04/27 10:30:34;;;;;;;4.50;3.00;;;19.30;54.40;;;19.98;45.17;101304.41;5152155;28;20012;-57
2023/04/27 10:33:08;;;;;;;7.53;3.03;;;19.40;54.20;;;20.15;45.18;101308.00;5151304;28;20035;-57
2023/04/27 10:35:42;;;;;;;9.55;5.28;;;19.50;54.20;;;20.10;43.33;101309.75;5141542;28;20090;-57
2023/04/27 10:38:19;;;;;;;9.88;4.78;;;19.60;52.50;;;19.70;43.74;101304.25;5142862;28;20053;-56
2023/04/27 10:40:57;;;;;;;5.72;2.80;;;19.30;52.60;;;19.75;45.97;101294.56;5148363;28;20518;-57
2023/04/27 10:43:30;;;;;;;5.38;2.70;;;19.30;54.60;;;20.03;46.23;101287.66;5151802;28;20038;-58
2023/04/27 10:46:11;;;;;;;6.20;2.90;;;19.50;55.10;;;20.24;46.62;101286.84;5150196;28;20569;-57